sensor_id;sensor_type;location;lat;lon;timestamp;temperature;humidity
73277;DHT22;61501;43.316;5.372;2023-07-31T00:00:08;24.90;67.80
73277;DHT22;61501;43.316;5.372;2023-07-31T00:02:37;24.90;67.70
73277;DHT22;61501;43.316;5.372;2023-07-31T00:05:02;24.90;67.80
73277;DHT22;61501;43.316;5.372;2023-07-31T00:07:28;24.80;67.70
73277;DHT22;61501;43.316;5.372;2023-07-31T00:09:54;24.80;68.80
73277;DHT22;61501;43.316;5.372;2023-07-31T00:12:22;24.80;67.90
73277;DHT22;61501;43.316;5.372;2023-07-31T00:14:47;24.70;70.00
73277;DHT22;61501;43.316;5.372;2023-07-31T00:17:13;24.60;71.40
73277;DHT22;61501;43.316;5.372;2023-07-31T00:19:38;24.60;72.80
73277;DHT22;61501;43.316;5.372;2023-07-31T00:22:04;24.50;73.90
73277;DHT22;61501;43.316;5.372;2023-07-31T00:24:30;24.50;73.00
73277;DHT22;61501;43.316;5.372;2023-07-31T00:26:56;24.40;72.60
73277;DHT22;61501;43.316;5.372;2023-07-31T00:29:21;24.40;73.10
73277;DHT22;61501;43.316;5.372;2023-07-31T00:31:47;24.30;74.00
73277;DHT22;61501;43.316;5.372;2023-07-31T00:34:12;24.30;73.30
73277;DHT22;61501;43.316;5.372;2023-07-31T00:36:38;24.20;72.80
73277;DHT22;61501;43.316;5.372;2023-07-31T00:39:04;24.20;74.00
73277;DHT22;61501;43.316;5.372;2023-07-31T00:41:30;24.10;74.20
73277;DHT22;61501;43.316;5.372;2023-07-31T00:43:55;24.10;73.70
73277;DHT22;61501;43.316;5.372;2023-07-31T00:46:21;24.00;76.10
73277;DHT22;61501;43.316;5.372;2023-07-31T00:48:47;24.00;76.30
73277;DHT22;61501;43.316;5.372;2023-07-31T00:51:13;23.90;76.10
73277;DHT22;61501;43.316;5.372;2023-07-31T00:53:40;23.90;76.70
73277;DHT22;61501;43.316;5.372;2023-07-31T00:56:06;23.80;75.80
73277;DHT22;61501;43.316;5.372;2023-07-31T00:58:33;23.80;76.70
73277;DHT22;61501;43.316;5.372;2023-07-31T01:00:58;23.80;76.70
73277;DHT22;61501;43.316;5.372;2023-07-31T01:03:27;23.80;76.30
73277;DHT22;61501;43.316;5.372;2023-07-31T01:06:19;23.70;77.10
73277;DHT22;61501;43.316;5.372;2023-07-31T01:09:08;23.70;76.60
73277;DHT22;61501;43.316;5.372;2023-07-31T01:11:48;23.80;75.90
73277;DHT22;61501;43.316;5.372;2023-07-31T01:14:15;23.80;75.00
73277;DHT22;61501;43.316;5.372;2023-07-31T01:16:41;23.70;75.10
73277;DHT22;61501;43.316;5.372;2023-07-31T01:19:09;23.70;76.60
73277;DHT22;61501;43.316;5.372;2023-07-31T01:24:30;23.60;77.00
73277;DHT22;61501;43.316;5.372;2023-07-31T01:27:09;23.50;77.40
73277;DHT22;61501;43.316;5.372;2023-07-31T01:29:47;23.50;77.00
73277;DHT22;61501;43.316;5.372;2023-07-31T01:32:14;23.50;76.70
73277;DHT22;61501;43.316;5.372;2023-07-31T01:34:43;23.40;77.20
73277;DHT22;61501;43.316;5.372;2023-07-31T01:37:09;23.40;78.90
73277;DHT22;61501;43.316;5.372;2023-07-31T01:39:35;23.40;79.00
73277;DHT22;61501;43.316;5.372;2023-07-31T01:42:01;23.30;78.80
73277;DHT22;61501;43.316;5.372;2023-07-31T01:44:27;23.20;78.50
73277;DHT22;61501;43.316;5.372;2023-07-31T01:46:53;23.20;80.10
73277;DHT22;61501;43.316;5.372;2023-07-31T01:49:26;23.20;80.00
73277;DHT22;61501;43.316;5.372;2023-07-31T01:51:51;23.20;79.20
73277;DHT22;61501;43.316;5.372;2023-07-31T01:54:17;23.10;81.20
73277;DHT22;61501;43.316;5.372;2023-07-31T01:56:43;23.10;79.80
73277;DHT22;61501;43.316;5.372;2023-07-31T01:59:08;23.00;81.40
73277;DHT22;61501;43.316;5.372;2023-07-31T02:01:34;23.00;80.60
73277;DHT22;61501;43.316;5.372;2023-07-31T02:04:00;23.00;81.50
73277;DHT22;61501;43.316;5.372;2023-07-31T02:06:25;22.90;81.10
73277;DHT22;61501;43.316;5.372;2023-07-31T02:08:51;22.90;80.90
73277;DHT22;61501;43.316;5.372;2023-07-31T02:11:17;22.90;80.10
73277;DHT22;61501;43.316;5.372;2023-07-31T02:13:42;22.90;79.80
73277;DHT22;61501;43.316;5.372;2023-07-31T02:16:08;22.80;79.00
73277;DHT22;61501;43.316;5.372;2023-07-31T02:18:33;22.80;79.50
73277;DHT22;61501;43.316;5.372;2023-07-31T02:20:59;22.80;79.10
73277;DHT22;61501;43.316;5.372;2023-07-31T02:23:25;22.80;77.90
73277;DHT22;61501;43.316;5.372;2023-07-31T02:25:50;22.80;78.40
73277;DHT22;61501;43.316;5.372;2023-07-31T02:28:16;22.80;78.00
73277;DHT22;61501;43.316;5.372;2023-07-31T02:30:44;22.80;77.70
73277;DHT22;61501;43.316;5.372;2023-07-31T02:33:11;22.70;77.70
73277;DHT22;61501;43.316;5.372;2023-07-31T02:35:37;22.70;78.00
73277;DHT22;61501;43.316;5.372;2023-07-31T02:38:05;22.70;79.60
73277;DHT22;61501;43.316;5.372;2023-07-31T02:40:31;22.70;79.30
73277;DHT22;61501;43.316;5.372;2023-07-31T02:42:57;22.70;78.40
73277;DHT22;61501;43.316;5.372;2023-07-31T02:45:22;22.60;77.60
73277;DHT22;61501;43.316;5.372;2023-07-31T02:47:48;22.60;79.10
73277;DHT22;61501;43.316;5.372;2023-07-31T02:50:14;22.70;78.90
73277;DHT22;61501;43.316;5.372;2023-07-31T02:52:39;22.60;78.70
73277;DHT22;61501;43.316;5.372;2023-07-31T02:55:06;22.60;78.40
73277;DHT22;61501;43.316;5.372;2023-07-31T02:57:32;22.60;78.50
73277;DHT22;61501;43.316;5.372;2023-07-31T02:59:57;22.60;79.00
73277;DHT22;61501;43.316;5.372;2023-07-31T03:02:23;22.60;77.70
73277;DHT22;61501;43.316;5.372;2023-07-31T03:04:48;22.70;78.20
73277;DHT22;61501;43.316;5.372;2023-07-31T03:07:14;22.70;76.80
73277;DHT22;61501;43.316;5.372;2023-07-31T03:09:40;22.60;76.50
73277;DHT22;61501;43.316;5.372;2023-07-31T03:12:06;22.60;76.10
73277;DHT22;61501;43.316;5.372;2023-07-31T03:14:31;22.70;76.50
73277;DHT22;61501;43.316;5.372;2023-07-31T03:16:57;22.70;75.90
73277;DHT22;61501;43.316;5.372;2023-07-31T03:19:23;22.60;75.80
73277;DHT22;61501;43.316;5.372;2023-07-31T03:21:48;22.70;74.90
73277;DHT22;61501;43.316;5.372;2023-07-31T03:24:22;22.70;75.30
73277;DHT22;61501;43.316;5.372;2023-07-31T03:26:47;22.70;73.80
73277;DHT22;61501;43.316;5.372;2023-07-31T03:29:13;22.70;73.70
73277;DHT22;61501;43.316;5.372;2023-07-31T03:31:38;22.70;73.90
73277;DHT22;61501;43.316;5.372;2023-07-31T03:34:04;22.60;74.00
73277;DHT22;61501;43.316;5.372;2023-07-31T03:36:29;22.60;74.10
73277;DHT22;61501;43.316;5.372;2023-07-31T03:38:55;22.60;74.60
73277;DHT22;61501;43.316;5.372;2023-07-31T03:41:21;22.60;73.30
73277;DHT22;61501;43.316;5.372;2023-07-31T03:43:50;22.60;74.20
73277;DHT22;61501;43.316;5.372;2023-07-31T03:46:17;22.50;73.70
73277;DHT22;61501;43.316;5.372;2023-07-31T03:48:43;22.60;73.10
73277;DHT22;61501;43.316;5.372;2023-07-31T03:51:08;22.50;73.10
73277;DHT22;61501;43.316;5.372;2023-07-31T03:53:37;22.50;72.80
73277;DHT22;61501;43.316;5.372;2023-07-31T03:56:04;22.50;72.40
73277;DHT22;61501;43.316;5.372;2023-07-31T03:58:30;22.50;72.50
73277;DHT22;61501;43.316;5.372;2023-07-31T04:00:56;22.50;72.60
73277;DHT22;61501;43.316;5.372;2023-07-31T04:03:21;22.40;72.30
73277;DHT22;61501;43.316;5.372;2023-07-31T04:05:47;22.40;72.40
73277;DHT22;61501;43.316;5.372;2023-07-31T04:08:14;22.40;71.70
73277;DHT22;61501;43.316;5.372;2023-07-31T04:10:39;22.40;72.00
73277;DHT22;61501;43.316;5.372;2023-07-31T04:13:05;22.40;71.90
73277;DHT22;61501;43.316;5.372;2023-07-31T04:15:30;22.30;71.70
73277;DHT22;61501;43.316;5.372;2023-07-31T04:17:56;22.30;71.70
73277;DHT22;61501;43.316;5.372;2023-07-31T04:20:22;22.40;72.30
73277;DHT22;61501;43.316;5.372;2023-07-31T04:22:48;22.40;71.80
73277;DHT22;61501;43.316;5.372;2023-07-31T04:25:13;22.30;72.30
73277;DHT22;61501;43.316;5.372;2023-07-31T04:27:40;22.30;73.00
73277;DHT22;61501;43.316;5.372;2023-07-31T04:30:07;22.30;72.60
73277;DHT22;61501;43.316;5.372;2023-07-31T04:32:33;22.20;73.10
73277;DHT22;61501;43.316;5.372;2023-07-31T04:34:59;22.20;72.90
73277;DHT22;61501;43.316;5.372;2023-07-31T04:37:24;22.20;72.70
73277;DHT22;61501;43.316;5.372;2023-07-31T04:39:50;22.30;72.80
73277;DHT22;61501;43.316;5.372;2023-07-31T04:42:16;22.20;73.10
73277;DHT22;61501;43.316;5.372;2023-07-31T04:44:41;22.20;73.20
73277;DHT22;61501;43.316;5.372;2023-07-31T04:47:07;22.20;73.00
73277;DHT22;61501;43.316;5.372;2023-07-31T04:49:33;22.20;73.40
73277;DHT22;61501;43.316;5.372;2023-07-31T04:51:58;22.10;74.00
73277;DHT22;61501;43.316;5.372;2023-07-31T04:54:24;22.10;74.50
73277;DHT22;61501;43.316;5.372;2023-07-31T04:56:50;22.10;74.20
73277;DHT22;61501;43.316;5.372;2023-07-31T04:59:15;22.10;73.70
73277;DHT22;61501;43.316;5.372;2023-07-31T05:01:41;22.00;75.30
73277;DHT22;61501;43.316;5.372;2023-07-31T05:04:07;22.10;75.00
73277;DHT22;61501;43.316;5.372;2023-07-31T05:06:32;22.00;75.40
73277;DHT22;61501;43.316;5.372;2023-07-31T05:08:58;22.10;75.10
73277;DHT22;61501;43.316;5.372;2023-07-31T05:11:24;22.00;75.60
73277;DHT22;61501;43.316;5.372;2023-07-31T05:13:49;22.00;76.10
73277;DHT22;61501;43.316;5.372;2023-07-31T05:16:15;22.00;75.40
73277;DHT22;61501;43.316;5.372;2023-07-31T05:18:40;22.00;75.60
73277;DHT22;61501;43.316;5.372;2023-07-31T05:21:06;22.10;76.30
73277;DHT22;61501;43.316;5.372;2023-07-31T05:23:32;22.10;75.90
73277;DHT22;61501;43.316;5.372;2023-07-31T05:26:08;22.00;75.90
73277;DHT22;61501;43.316;5.372;2023-07-31T05:28:37;22.10;75.40
73277;DHT22;61501;43.316;5.372;2023-07-31T05:31:04;22.10;75.10
73277;DHT22;61501;43.316;5.372;2023-07-31T05:33:30;22.10;75.20
73277;DHT22;61501;43.316;5.372;2023-07-31T05:35:56;22.20;75.10
73277;DHT22;61501;43.316;5.372;2023-07-31T05:38:22;22.30;75.10
73277;DHT22;61501;43.316;5.372;2023-07-31T05:40:48;22.20;74.60
73277;DHT22;61501;43.316;5.372;2023-07-31T05:43:14;22.10;74.50
73277;DHT22;61501;43.316;5.372;2023-07-31T05:45:41;22.30;73.90
73277;DHT22;61501;43.316;5.372;2023-07-31T05:48:07;22.30;74.10
73277;DHT22;61501;43.316;5.372;2023-07-31T05:50:32;22.30;74.00
73277;DHT22;61501;43.316;5.372;2023-07-31T05:52:58;22.40;73.80
73277;DHT22;61501;43.316;5.372;2023-07-31T05:55:24;22.20;73.70
73277;DHT22;61501;43.316;5.372;2023-07-31T05:57:52;22.30;74.30
73277;DHT22;61501;43.316;5.372;2023-07-31T06:00:18;22.40;73.60
73277;DHT22;61501;43.316;5.372;2023-07-31T06:02:44;22.40;74.50
73277;DHT22;61501;43.316;5.372;2023-07-31T06:05:10;22.40;73.90
73277;DHT22;61501;43.316;5.372;2023-07-31T06:07:35;22.40;74.70
73277;DHT22;61501;43.316;5.372;2023-07-31T06:10:01;22.30;74.80
73277;DHT22;61501;43.316;5.372;2023-07-31T06:12:28;22.40;75.10
73277;DHT22;61501;43.316;5.372;2023-07-31T06:14:54;22.40;74.50
73277;DHT22;61501;43.316;5.372;2023-07-31T06:17:20;22.40;74.70
73277;DHT22;61501;43.316;5.372;2023-07-31T06:19:46;22.40;74.90
73277;DHT22;61501;43.316;5.372;2023-07-31T06:22:12;22.40;74.50
73277;DHT22;61501;43.316;5.372;2023-07-31T06:24:38;22.40;74.50
73277;DHT22;61501;43.316;5.372;2023-07-31T06:27:04;22.40;74.40
73277;DHT22;61501;43.316;5.372;2023-07-31T06:29:31;22.50;74.80
73277;DHT22;61501;43.316;5.372;2023-07-31T06:31:57;22.60;74.80
73277;DHT22;61501;43.316;5.372;2023-07-31T06:34:22;22.60;73.50
73277;DHT22;61501;43.316;5.372;2023-07-31T06:36:48;22.60;73.10
73277;DHT22;61501;43.316;5.372;2023-07-31T06:39:13;22.60;73.50
73277;DHT22;61501;43.316;5.372;2023-07-31T06:41:39;22.70;74.10
73277;DHT22;61501;43.316;5.372;2023-07-31T06:44:05;22.70;73.00
73277;DHT22;61501;43.316;5.372;2023-07-31T06:46:31;22.60;72.50
73277;DHT22;61501;43.316;5.372;2023-07-31T06:48:59;22.60;71.30
73277;DHT22;61501;43.316;5.372;2023-07-31T06:51:28;22.60;71.30
73277;DHT22;61501;43.316;5.372;2023-07-31T06:53:57;22.70;70.40
73277;DHT22;61501;43.316;5.372;2023-07-31T06:56:22;22.70;70.60
73277;DHT22;61501;43.316;5.372;2023-07-31T06:58:48;22.80;70.50
73277;DHT22;61501;43.316;5.372;2023-07-31T07:01:14;22.80;69.40
73277;DHT22;61501;43.316;5.372;2023-07-31T07:03:39;22.90;69.00
73277;DHT22;61501;43.316;5.372;2023-07-31T07:06:05;22.80;70.10
73277;DHT22;61501;43.316;5.372;2023-07-31T07:08:31;22.80;68.90
73277;DHT22;61501;43.316;5.372;2023-07-31T07:10:56;22.80;69.40
73277;DHT22;61501;43.316;5.372;2023-07-31T07:13:22;22.90;67.90
73277;DHT22;61501;43.316;5.372;2023-07-31T07:15:48;22.80;68.50
73277;DHT22;61501;43.316;5.372;2023-07-31T07:18:14;22.90;68.20
73277;DHT22;61501;43.316;5.372;2023-07-31T07:20:40;23.00;68.40
73277;DHT22;61501;43.316;5.372;2023-07-31T07:23:06;23.00;68.80
73277;DHT22;61501;43.316;5.372;2023-07-31T07:25:32;23.00;68.80
73277;DHT22;61501;43.316;5.372;2023-07-31T07:27:57;23.20;68.20
73277;DHT22;61501;43.316;5.372;2023-07-31T07:30:23;23.30;68.00
73277;DHT22;61501;43.316;5.372;2023-07-31T07:32:50;23.40;68.00
73277;DHT22;61501;43.316;5.372;2023-07-31T07:35:16;23.50;67.70
73277;DHT22;61501;43.316;5.372;2023-07-31T07:37:42;23.60;66.80
73277;DHT22;61501;43.316;5.372;2023-07-31T07:40:08;23.60;66.10
73277;DHT22;61501;43.316;5.372;2023-07-31T07:42:33;23.60;66.40
73277;DHT22;61501;43.316;5.372;2023-07-31T07:44:59;23.60;65.40
73277;DHT22;61501;43.316;5.372;2023-07-31T07:47:25;23.70;66.70
73277;DHT22;61501;43.316;5.372;2023-07-31T07:49:50;23.70;66.20
73277;DHT22;61501;43.316;5.372;2023-07-31T07:52:16;23.80;65.00
73277;DHT22;61501;43.316;5.372;2023-07-31T07:54:41;23.70;65.30
73277;DHT22;61501;43.316;5.372;2023-07-31T07:57:07;23.60;66.00
73277;DHT22;61501;43.316;5.372;2023-07-31T07:59:33;23.70;64.80
73277;DHT22;61501;43.316;5.372;2023-07-31T08:01:58;23.80;65.60
73277;DHT22;61501;43.316;5.372;2023-07-31T08:04:24;23.90;64.60
73277;DHT22;61501;43.316;5.372;2023-07-31T08:06:49;23.90;64.00
73277;DHT22;61501;43.316;5.372;2023-07-31T08:09:15;24.10;64.40
73277;DHT22;61501;43.316;5.372;2023-07-31T08:11:41;24.10;63.40
73277;DHT22;61501;43.316;5.372;2023-07-31T08:14:06;24.10;63.70
73277;DHT22;61501;43.316;5.372;2023-07-31T08:16:32;24.20;63.00
73277;DHT22;61501;43.316;5.372;2023-07-31T08:18:58;24.20;63.20
73277;DHT22;61501;43.316;5.372;2023-07-31T08:21:23;24.20;64.70
73277;DHT22;61501;43.316;5.372;2023-07-31T08:23:49;24.40;62.90
73277;DHT22;61501;43.316;5.372;2023-07-31T08:26:20;24.30;63.90
73277;DHT22;61501;43.316;5.372;2023-07-31T08:28:46;24.20;62.90
73277;DHT22;61501;43.316;5.372;2023-07-31T08:31:12;24.30;62.30
73277;DHT22;61501;43.316;5.372;2023-07-31T08:33:39;24.40;61.90
73277;DHT22;61501;43.316;5.372;2023-07-31T08:36:06;24.40;61.00
73277;DHT22;61501;43.316;5.372;2023-07-31T08:38:48;24.40;61.00
73277;DHT22;61501;43.316;5.372;2023-07-31T08:41:15;24.40;60.80
73277;DHT22;61501;43.316;5.372;2023-07-31T08:43:45;24.40;60.70
73277;DHT22;61501;43.316;5.372;2023-07-31T08:46:11;24.50;60.60
73277;DHT22;61501;43.316;5.372;2023-07-31T08:48:37;24.50;60.60
73277;DHT22;61501;43.316;5.372;2023-07-31T08:51:04;24.50;60.20
73277;DHT22;61501;43.316;5.372;2023-07-31T08:53:30;24.50;60.30
73277;DHT22;61501;43.316;5.372;2023-07-31T08:55:56;24.60;60.70
73277;DHT22;61501;43.316;5.372;2023-07-31T08:58:24;24.60;60.80
73277;DHT22;61501;43.316;5.372;2023-07-31T09:00:51;24.60;60.10
73277;DHT22;61501;43.316;5.372;2023-07-31T09:03:18;24.70;59.90
73277;DHT22;61501;43.316;5.372;2023-07-31T09:05:46;24.70;59.20
73277;DHT22;61501;43.316;5.372;2023-07-31T09:08:18;24.70;59.40
73277;DHT22;61501;43.316;5.372;2023-07-31T09:10:45;24.80;59.20
73277;DHT22;61501;43.316;5.372;2023-07-31T09:13:12;24.90;58.50
73277;DHT22;61501;43.316;5.372;2023-07-31T09:15:39;24.90;58.60
73277;DHT22;61501;43.316;5.372;2023-07-31T09:18:06;24.90;58.80
73277;DHT22;61501;43.316;5.372;2023-07-31T09:20:32;25.00;58.80
73277;DHT22;61501;43.316;5.372;2023-07-31T09:23:14;25.10;58.30
73277;DHT22;61501;43.316;5.372;2023-07-31T09:25:43;25.20;57.90
73277;DHT22;61501;43.316;5.372;2023-07-31T09:28:12;25.00;57.80
73277;DHT22;61501;43.316;5.372;2023-07-31T09:30:49;25.20;57.90
73277;DHT22;61501;43.316;5.372;2023-07-31T09:33:15;25.00;58.00
73277;DHT22;61501;43.316;5.372;2023-07-31T09:35:41;25.20;57.60
73277;DHT22;61501;43.316;5.372;2023-07-31T09:38:09;25.30;57.60
73277;DHT22;61501;43.316;5.372;2023-07-31T09:40:48;25.40;57.20
73277;DHT22;61501;43.316;5.372;2023-07-31T09:43:21;25.60;57.20
73277;DHT22;61501;43.316;5.372;2023-07-31T09:45:47;25.60;56.10
73277;DHT22;61501;43.316;5.372;2023-07-31T09:48:17;25.50;57.00
73277;DHT22;61501;43.316;5.372;2023-07-31T09:50:44;25.60;56.60
73277;DHT22;61501;43.316;5.372;2023-07-31T09:53:10;25.80;56.10
73277;DHT22;61501;43.316;5.372;2023-07-31T09:55:37;25.80;55.70
73277;DHT22;61501;43.316;5.372;2023-07-31T09:58:10;25.70;55.40
73277;DHT22;61501;43.316;5.372;2023-07-31T10:00:36;25.80;56.10
73277;DHT22;61501;43.316;5.372;2023-07-31T10:03:05;25.80;55.00
73277;DHT22;61501;43.316;5.372;2023-07-31T10:05:34;25.80;54.80
73277;DHT22;61501;43.316;5.372;2023-07-31T10:08:00;25.80;55.60
73277;DHT22;61501;43.316;5.372;2023-07-31T10:10:27;26.00;54.50
73277;DHT22;61501;43.316;5.372;2023-07-31T10:12:53;26.00;55.10
73277;DHT22;61501;43.316;5.372;2023-07-31T10:15:20;26.10;54.90
73277;DHT22;61501;43.316;5.372;2023-07-31T10:17:49;26.20;54.20
73277;DHT22;61501;43.316;5.372;2023-07-31T10:20:16;26.20;53.80
73277;DHT22;61501;43.316;5.372;2023-07-31T10:22:43;26.30;52.80
73277;DHT22;61501;43.316;5.372;2023-07-31T10:25:09;26.30;53.20
73277;DHT22;61501;43.316;5.372;2023-07-31T10:27:35;26.40;53.80
73277;DHT22;61501;43.316;5.372;2023-07-31T10:30:03;26.40;52.80
73277;DHT22;61501;43.316;5.372;2023-07-31T10:32:30;26.50;52.80
73277;DHT22;61501;43.316;5.372;2023-07-31T10:34:56;26.50;52.40
73277;DHT22;61501;43.316;5.372;2023-07-31T10:37:29;26.50;52.40
73277;DHT22;61501;43.316;5.372;2023-07-31T10:45:39;26.50;51.10
73277;DHT22;61501;43.316;5.372;2023-07-31T10:48:13;26.50;51.30
73277;DHT22;61501;43.316;5.372;2023-07-31T10:50:50;26.50;50.10
73277;DHT22;61501;43.316;5.372;2023-07-31T10:53:29;26.70;51.10
73277;DHT22;61501;43.316;5.372;2023-07-31T10:55:58;26.80;50.10
73277;DHT22;61501;43.316;5.372;2023-07-31T10:58:24;26.80;49.50
73277;DHT22;61501;43.316;5.372;2023-07-31T11:00:55;26.80;50.00
73277;DHT22;61501;43.316;5.372;2023-07-31T11:03:26;26.80;48.90
73277;DHT22;61501;43.316;5.372;2023-07-31T11:08:22;26.90;49.30
73277;DHT22;61501;43.316;5.372;2023-07-31T11:13:48;26.90;49.60
73277;DHT22;61501;43.316;5.372;2023-07-31T11:16:16;27.00;49.60
73277;DHT22;61501;43.316;5.372;2023-07-31T11:18:44;27.20;48.80
73277;DHT22;61501;43.316;5.372;2023-07-31T11:21:18;27.20;47.70
73277;DHT22;61501;43.316;5.372;2023-07-31T11:23:48;27.30;47.90
73277;DHT22;61501;43.316;5.372;2023-07-31T11:26:14;27.30;45.80
73277;DHT22;61501;43.316;5.372;2023-07-31T11:28:40;27.30;47.80
73277;DHT22;61501;43.316;5.372;2023-07-31T11:31:09;27.40;48.50
73277;DHT22;61501;43.316;5.372;2023-07-31T11:33:35;27.40;48.40
73277;DHT22;61501;43.316;5.372;2023-07-31T11:36:01;27.40;48.60
73277;DHT22;61501;43.316;5.372;2023-07-31T11:38:31;27.50;48.60
73277;DHT22;61501;43.316;5.372;2023-07-31T11:40:59;27.60;48.20
73277;DHT22;61501;43.316;5.372;2023-07-31T11:43:25;27.60;47.80
73277;DHT22;61501;43.316;5.372;2023-07-31T11:45:55;27.70;46.50
73277;DHT22;61501;43.316;5.372;2023-07-31T11:48:22;27.80;47.00
73277;DHT22;61501;43.316;5.372;2023-07-31T11:50:52;27.90;47.90
73277;DHT22;61501;43.316;5.372;2023-07-31T11:54:00;27.90;48.40
73277;DHT22;61501;43.316;5.372;2023-07-31T11:56:19;27.60;48.40
73277;DHT22;61501;43.316;5.372;2023-07-31T11:58:49;27.60;48.80
73277;DHT22;61501;43.316;5.372;2023-07-31T12:01:16;27.70;48.70
73277;DHT22;61501;43.316;5.372;2023-07-31T12:03:43;27.80;49.20
73277;DHT22;61501;43.316;5.372;2023-07-31T12:06:08;28.10;49.30
73277;DHT22;61501;43.316;5.372;2023-07-31T12:08:34;28.50;47.00
73277;DHT22;61501;43.316;5.372;2023-07-31T12:11:06;28.90;45.80
73277;DHT22;61501;43.316;5.372;2023-07-31T12:13:33;29.20;45.90
73277;DHT22;61501;43.316;5.372;2023-07-31T12:16:01;29.30;45.80
73277;DHT22;61501;43.316;5.372;2023-07-31T12:18:33;29.40;45.30
73277;DHT22;61501;43.316;5.372;2023-07-31T12:21:00;29.50;44.40
73277;DHT22;61501;43.316;5.372;2023-07-31T12:23:28;29.90;44.40
73277;DHT22;61501;43.316;5.372;2023-07-31T12:26:20;29.90;43.60
73277;DHT22;61501;43.316;5.372;2023-07-31T12:28:47;30.50;41.80
73277;DHT22;61501;43.316;5.372;2023-07-31T12:31:18;30.40;41.60
73277;DHT22;61501;43.316;5.372;2023-07-31T12:33:46;30.50;41.80
73277;DHT22;61501;43.316;5.372;2023-07-31T12:36:17;30.80;40.80
73277;DHT22;61501;43.316;5.372;2023-07-31T12:38:44;30.80;41.70
73277;DHT22;61501;43.316;5.372;2023-07-31T12:41:10;30.20;43.20
73277;DHT22;61501;43.316;5.372;2023-07-31T12:43:37;30.00;44.90
73277;DHT22;61501;43.316;5.372;2023-07-31T12:46:03;29.80;45.10
73277;DHT22;61501;43.316;5.372;2023-07-31T12:48:29;29.50;47.90
73277;DHT22;61501;43.316;5.372;2023-07-31T12:50:55;28.90;50.90
73277;DHT22;61501;43.316;5.372;2023-07-31T12:53:20;28.80;50.30
73277;DHT22;61501;43.316;5.372;2023-07-31T12:55:46;28.50;57.20
73277;DHT22;61501;43.316;5.372;2023-07-31T12:58:12;26.60;69.90
73277;DHT22;61501;43.316;5.372;2023-07-31T13:00:38;24.60;90.20
73277;DHT22;61501;43.316;5.372;2023-07-31T13:03:04;23.90;96.00
73277;DHT22;61501;43.316;5.372;2023-07-31T13:05:29;24.20;96.70
73277;DHT22;61501;43.316;5.372;2023-07-31T13:07:55;24.90;89.20
73277;DHT22;61501;43.316;5.372;2023-07-31T13:10:23;25.00;84.20
73277;DHT22;61501;43.316;5.372;2023-07-31T13:12:49;25.40;80.10
73277;DHT22;61501;43.316;5.372;2023-07-31T13:15:15;25.70;74.60
73277;DHT22;61501;43.316;5.372;2023-07-31T13:17:40;26.00;73.50
73277;DHT22;61501;43.316;5.372;2023-07-31T13:20:06;26.40;70.30
73277;DHT22;61501;43.316;5.372;2023-07-31T13:22:32;26.30;73.50
73277;DHT22;61501;43.316;5.372;2023-07-31T13:24:58;26.40;70.90
73277;DHT22;61501;43.316;5.372;2023-07-31T13:27:24;26.70;72.30
73277;DHT22;61501;43.316;5.372;2023-07-31T13:29:53;26.70;74.10
73277;DHT22;61501;43.316;5.372;2023-07-31T13:32:20;27.00;68.60
73277;DHT22;61501;43.316;5.372;2023-07-31T13:34:47;26.50;71.00
73277;DHT22;61501;43.316;5.372;2023-07-31T13:37:13;26.20;76.60
73277;DHT22;61501;43.316;5.372;2023-07-31T13:39:39;26.30;78.20
73277;DHT22;61501;43.316;5.372;2023-07-31T13:42:05;26.20;76.20
73277;DHT22;61501;43.316;5.372;2023-07-31T13:44:37;26.60;77.10
73277;DHT22;61501;43.316;5.372;2023-07-31T13:47:03;26.50;75.60
73277;DHT22;61501;43.316;5.372;2023-07-31T13:49:30;26.50;76.80
73277;DHT22;61501;43.316;5.372;2023-07-31T13:51:56;26.50;78.50
73277;DHT22;61501;43.316;5.372;2023-07-31T13:54:23;26.70;74.10
73277;DHT22;61501;43.316;5.372;2023-07-31T13:56:49;26.70;72.30
73277;DHT22;61501;43.316;5.372;2023-07-31T13:59:15;26.50;72.10
73277;DHT22;61501;43.316;5.372;2023-07-31T14:01:42;26.90;68.70
73277;DHT22;61501;43.316;5.372;2023-07-31T14:04:08;26.70;66.50
73277;DHT22;61501;43.316;5.372;2023-07-31T14:06:33;26.40;72.10
73277;DHT22;61501;43.316;5.372;2023-07-31T14:08:59;26.80;68.40
73277;DHT22;61501;43.316;5.372;2023-07-31T14:11:25;26.70;66.90
73277;DHT22;61501;43.316;5.372;2023-07-31T14:13:51;27.10;67.20
73277;DHT22;61501;43.316;5.372;2023-07-31T14:16:16;27.10;63.80
73277;DHT22;61501;43.316;5.372;2023-07-31T14:18:43;27.50;64.30
73277;DHT22;61501;43.316;5.372;2023-07-31T14:21:08;27.00;64.50
73277;DHT22;61501;43.316;5.372;2023-07-31T14:23:34;27.80;64.20
73277;DHT22;61501;43.316;5.372;2023-07-31T14:26:00;27.50;64.60
73277;DHT22;61501;43.316;5.372;2023-07-31T14:28:26;26.70;70.70
73277;DHT22;61501;43.316;5.372;2023-07-31T14:30:51;25.80;79.00
73277;DHT22;61501;43.316;5.372;2023-07-31T14:33:17;26.00;76.10
73277;DHT22;61501;43.316;5.372;2023-07-31T14:35:43;25.90;70.00
73277;DHT22;61501;43.316;5.372;2023-07-31T14:38:08;27.10;66.20
73277;DHT22;61501;43.316;5.372;2023-07-31T14:40:34;27.40;62.70
73277;DHT22;61501;43.316;5.372;2023-07-31T14:43:00;27.40;56.30
73277;DHT22;61501;43.316;5.372;2023-07-31T14:45:25;26.40;64.90
73277;DHT22;61501;43.316;5.372;2023-07-31T14:47:51;27.10;60.20
73277;DHT22;61501;43.316;5.372;2023-07-31T14:50:17;27.30;60.10
73277;DHT22;61501;43.316;5.372;2023-07-31T14:52:42;26.60;59.10
73277;DHT22;61501;43.316;5.372;2023-07-31T14:55:08;26.70;67.60
73277;DHT22;61501;43.316;5.372;2023-07-31T14:57:34;25.80;70.60
73277;DHT22;61501;43.316;5.372;2023-07-31T15:00:00;25.90;69.90
73277;DHT22;61501;43.316;5.372;2023-07-31T15:02:26;26.70;73.20
73277;DHT22;61501;43.316;5.372;2023-07-31T15:04:52;27.30;57.90
73277;DHT22;61501;43.316;5.372;2023-07-31T15:07:18;26.90;66.30
73277;DHT22;61501;43.316;5.372;2023-07-31T15:09:44;25.80;77.90
73277;DHT22;61501;43.316;5.372;2023-07-31T15:12:09;26.30;73.60
73277;DHT22;61501;43.316;5.372;2023-07-31T15:14:35;27.00;61.90
73277;DHT22;61501;43.316;5.372;2023-07-31T15:17:00;27.00;68.40
73277;DHT22;61501;43.316;5.372;2023-07-31T15:19:26;27.30;62.80
73277;DHT22;61501;43.316;5.372;2023-07-31T15:21:52;26.70;65.10
73277;DHT22;61501;43.316;5.372;2023-07-31T15:24:18;27.20;68.70
73277;DHT22;61501;43.316;5.372;2023-07-31T15:26:43;27.00;59.80
73277;DHT22;61501;43.316;5.372;2023-07-31T15:29:09;27.70;55.90
73277;DHT22;61501;43.316;5.372;2023-07-31T15:31:39;27.50;55.70
73277;DHT22;61501;43.316;5.372;2023-07-31T15:34:05;27.50;56.90
73277;DHT22;61501;43.316;5.372;2023-07-31T15:36:31;27.90;54.20
73277;DHT22;61501;43.316;5.372;2023-07-31T15:38:57;27.60;55.70
73277;DHT22;61501;43.316;5.372;2023-07-31T15:41:23;27.60;54.50